sensor_id;sensor_type;location;lat;lon;timestamp;pressure;altitude;pressure_sealevel;temperature;humidity
71145;BME280;58812;47.698;17.726;2022-09-16T00:00:23;99565.19;;;16.44;100.00
71145;BME280;58812;47.698;17.726;2022-09-16T00:02:51;99561.75;;;16.70;100.00
71145;BME280;58812;47.698;17.726;2022-09-16T00:05:17;99558.66;;;16.73;100.00
71145;BME280;58812;47.698;17.726;2022-09-16T00:07:42;99558.41;;;16.68;100.00
71145;BME280;58812;47.698;17.726;2022-09-16T00:10:08;99546.28;;;16.51;100.00
71145;BME280;58812;47.698;17.726;2022-09-16T00:12:34;99533.69;;;16.23;100.00
71145;BME280;58812;47.698;17.726;2022-09-16T00:15:00;99525.81;;;16.22;100.00
71145;BME280;58812;47.698;17.726;2022-09-16T00:17:26;99528.41;;;16.43;100.00
71145;BME280;58812;47.698;17.726;2022-09-16T00:19:51;99543.16;;;16.54;100.00
71145;BME280;58812;47.698;17.726;2022-09-16T00:22:17;99540.06;;;16.57;100.00
71145;BME280;58812;47.698;17.726;2022-09-16T00:24:42;99550.94;;;16.70;100.00
71145;BME280;58812;47.698;17.726;2022-09-16T00:27:08;99549.00;;;16.58;100.00
71145;BME280;58812;47.698;17.726;2022-09-16T00:29:33;99556.78;;;16.74;100.00
71145;BME280;58812;47.698;17.726;2022-09-16T00:31:59;99567.13;;;16.64;100.00
71145;BME280;58812;47.698;17.726;2022-09-16T00:34:24;99564.97;;;16.46;100.00
71145;BME280;58812;47.698;17.726;2022-09-16T00:36:50;99563.44;;;16.30;100.00
71145;BME280;58812;47.698;17.726;2022-09-16T00:39:15;99564.63;;;16.14;100.00
71145;BME280;58812;47.698;17.726;2022-09-16T00:41:41;99570.25;;;16.19;100.00
71145;BME280;58812;47.698;17.726;2022-09-16T00:47:11;99576.13;;;15.95;100.00
71145;BME280;58812;47.698;17.726;2022-09-16T00:49:37;99576.34;;;15.93;100.00
71145;BME280;58812;47.698;17.726;2022-09-16T00:52:04;99568.44;;;15.92;100.00
71145;BME280;58812;47.698;17.726;2022-09-16T00:54:33;99570.88;;;15.87;100.00
71145;BME280;58812;47.698;17.726;2022-09-16T00:57:00;99576.88;;;15.82;100.00
71145;BME280;58812;47.698;17.726;2022-09-16T00:59:38;99587.50;;;15.84;100.00
71145;BME280;58812;47.698;17.726;2022-09-16T01:02:10;99587.09;;;15.87;100.00
71145;BME280;58812;47.698;17.726;2022-09-16T01:07:09;99562.97;;;15.79;100.00
71145;BME280;58812;47.698;17.726;2022-09-16T01:09:34;99569.41;;;15.78;100.00
71145;BME280;58812;47.698;17.726;2022-09-16T01:12:00;99562.84;;;15.93;100.00
71145;BME280;58812;47.698;17.726;2022-09-16T01:14:26;99556.72;;;15.78;100.00
71145;BME280;58812;47.698;17.726;2022-09-16T01:36:29;99590.09;;;15.28;100.00
71145;BME280;58812;47.698;17.726;2022-09-16T01:41:56;99587.28;;;15.14;100.00
71145;BME280;58812;47.698;17.726;2022-09-16T01:47:35;99586.91;;;14.96;100.00
71145;BME280;58812;47.698;17.726;2022-09-16T01:53:00;99579.56;;;15.11;100.00
71145;BME280;58812;47.698;17.726;2022-09-16T01:55:43;99586.25;;;14.94;100.00
71145;BME280;58812;47.698;17.726;2022-09-16T01:58:43;99575.16;;;15.04;100.00
71145;BME280;58812;47.698;17.726;2022-09-16T02:01:19;99585.75;;;14.84;100.00
71145;BME280;58812;47.698;17.726;2022-09-16T02:03:51;99578.09;;;14.66;100.00
71145;BME280;58812;47.698;17.726;2022-09-16T02:06:21;99575.84;;;14.91;100.00
71145;BME280;58812;47.698;17.726;2022-09-16T02:09:01;99580.22;;;14.71;100.00
71145;BME280;58812;47.698;17.726;2022-09-16T02:11:29;99584.66;;;14.63;100.00
71145;BME280;58812;47.698;17.726;2022-09-16T02:14:08;99570.56;;;14.61;100.00
71145;BME280;58812;47.698;17.726;2022-09-16T02:16:38;99572.41;;;14.61;100.00
71145;BME280;58812;47.698;17.726;2022-09-16T02:19:11;99576.13;;;14.45;100.00
71145;BME280;58812;47.698;17.726;2022-09-16T02:21:40;99571.69;;;14.52;100.00
71145;BME280;58812;47.698;17.726;2022-09-16T02:24:11;99586.91;;;14.96;100.00
71145;BME280;58812;47.698;17.726;2022-09-16T02:26:43;99586.78;;;14.83;100.00
71145;BME280;58812;47.698;17.726;2022-09-16T02:29:17;99582.53;;;14.95;100.00
71145;BME280;58812;47.698;17.726;2022-09-16T02:31:43;99585.22;;;15.16;100.00
71145;BME280;58812;47.698;17.726;2022-09-16T02:34:18;99584.09;;;15.26;100.00
71145;BME280;58812;47.698;17.726;2022-09-16T02:36:51;99583.25;;;15.25;100.00
71145;BME280;58812;47.698;17.726;2022-09-16T02:39:25;99584.78;;;15.34;100.00
71145;BME280;58812;47.698;17.726;2022-09-16T02:41:51;99574.44;;;15.16;100.00
71145;BME280;58812;47.698;17.726;2022-09-16T02:44:20;99577.66;;;15.05;100.00
71145;BME280;58812;47.698;17.726;2022-09-16T02:52:22;99578.38;;;14.56;100.00
71145;BME280;58812;47.698;17.726;2022-09-16T02:54:59;99580.03;;;14.57;100.00
71145;BME280;58812;47.698;17.726;2022-09-16T02:57:26;99582.75;;;14.28;100.00
71145;BME280;58812;47.698;17.726;2022-09-16T02:59:52;99584.94;;;14.68;100.00
71145;BME280;58812;47.698;17.726;2022-09-16T03:02:18;99580.94;;;14.64;100.00
71145;BME280;58812;47.698;17.726;2022-09-16T03:04:44;99587.47;;;14.55;100.00
71145;BME280;58812;47.698;17.726;2022-09-16T03:07:10;99584.31;;;14.66;100.00
71145;BME280;58812;47.698;17.726;2022-09-16T03:09:38;99588.03;;;14.65;100.00
71145;BME280;58812;47.698;17.726;2022-09-16T03:25:38;99599.22;;;15.27;100.00
71145;BME280;58812;47.698;17.726;2022-09-16T03:28:12;99582.66;;;15.30;100.00
71145;BME280;58812;47.698;17.726;2022-09-16T03:33:31;99597.16;;;15.29;100.00
71145;BME280;58812;47.698;17.726;2022-09-16T03:35:59;99598.00;;;15.08;100.00
71145;BME280;58812;47.698;17.726;2022-09-16T03:38:27;99594.75;;;15.12;100.00
71145;BME280;58812;47.698;17.726;2022-09-16T03:40:53;99591.91;;;15.20;100.00
71145;BME280;58812;47.698;17.726;2022-09-16T03:43:18;99588.97;;;15.15;100.00
71145;BME280;58812;47.698;17.726;2022-09-16T03:45:44;99597.16;;;15.29;100.00
71145;BME280;58812;47.698;17.726;2022-09-16T03:48:11;99592.69;;;15.14;100.00
71145;BME280;58812;47.698;17.726;2022-09-16T03:50:37;99596.00;;;15.16;100.00
71145;BME280;58812;47.698;17.726;2022-09-16T03:53:03;99603.28;;;15.16;100.00
71145;BME280;58812;47.698;17.726;2022-09-16T03:55:28;99604.37;;;15.21;100.00
71145;BME280;58812;47.698;17.726;2022-09-16T03:57:54;99609.12;;;15.19;100.00
71145;BME280;58812;47.698;17.726;2022-09-16T04:00:20;99610.66;;;15.29;100.00
71145;BME280;58812;47.698;17.726;2022-09-16T04:02:46;99606.50;;;15.26;100.00
71145;BME280;58812;47.698;17.726;2022-09-16T04:05:11;99601.88;;;15.20;100.00
71145;BME280;58812;47.698;17.726;2022-09-16T04:07:37;99596.78;;;15.10;100.00
71145;BME280;58812;47.698;17.726;2022-09-16T04:10:04;99594.59;;;14.99;100.00
71145;BME280;58812;47.698;17.726;2022-09-16T04:12:30;99599.41;;;15.04;100.00
71145;BME280;58812;47.698;17.726;2022-09-16T04:14:55;99595.88;;;15.03;100.00
71145;BME280;58812;47.698;17.726;2022-09-16T04:17:21;99601.50;;;14.87;100.00
71145;BME280;58812;47.698;17.726;2022-09-16T04:19:46;99598.44;;;14.90;100.00
71145;BME280;58812;47.698;17.726;2022-09-16T04:22:12;99600.81;;;14.78;100.00
71145;BME280;58812;47.698;17.726;2022-09-16T04:24:37;99599.47;;;14.53;100.00
71145;BME280;58812;47.698;17.726;2022-09-16T04:27:03;99597.87;;;14.14;100.00
71145;BME280;58812;47.698;17.726;2022-09-16T04:29:28;99596.41;;;14.11;100.00
71145;BME280;58812;47.698;17.726;2022-09-16T04:31:54;99589.91;;;13.91;100.00
71145;BME280;58812;47.698;17.726;2022-09-16T04:34:19;99595.75;;;13.95;100.00
71145;BME280;58812;47.698;17.726;2022-09-16T04:36:45;99591.09;;;13.74;100.00
71145;BME280;58812;47.698;17.726;2022-09-16T04:39:10;99595.88;;;13.63;100.00
71145;BME280;58812;47.698;17.726;2022-09-16T04:41:36;99599.84;;;14.05;100.00
71145;BME280;58812;47.698;17.726;2022-09-16T04:44:02;99600.19;;;14.17;100.00
71145;BME280;58812;47.698;17.726;2022-09-16T04:46:29;99597.50;;;14.02;100.00
71145;BME280;58812;47.698;17.726;2022-09-16T04:48:55;99599.00;;;14.20;100.00
71145;BME280;58812;47.698;17.726;2022-09-16T04:51:21;99605.13;;;14.28;100.00
71145;BME280;58812;47.698;17.726;2022-09-16T04:53:48;99607.72;;;14.22;100.00
71145;BME280;58812;47.698;17.726;2022-09-16T04:56:20;99607.06;;;14.34;100.00
71145;BME280;58812;47.698;17.726;2022-09-16T04:58:47;99597.22;;;14.27;100.00
71145;BME280;58812;47.698;17.726;2022-09-16T05:01:16;99596.66;;;14.16;100.00
71145;BME280;58812;47.698;17.726;2022-09-16T05:03:44;99599.34;;;14.16;100.00
71145;BME280;58812;47.698;17.726;2022-09-16T05:06:12;99592.75;;;14.34;100.00
71145;BME280;58812;47.698;17.726;2022-09-16T05:08:38;99595.44;;;14.63;100.00
71145;BME280;58812;47.698;17.726;2022-09-16T05:11:06;99595.50;;;14.70;100.00
71145;BME280;58812;47.698;17.726;2022-09-16T05:13:32;99596.09;;;15.02;100.00
71145;BME280;58812;47.698;17.726;2022-09-16T05:16:06;99595.88;;;15.03;100.00
71145;BME280;58812;47.698;17.726;2022-09-16T05:18:33;99597.63;;;15.11;100.00
71145;BME280;58812;47.698;17.726;2022-09-16T05:21:00;99604.37;;;15.21;100.00
71145;BME280;58812;47.698;17.726;2022-09-16T05:23:26;99597.63;;;15.11;100.00
71145;BME280;58812;47.698;17.726;2022-09-16T05:25:52;99609.44;;;14.88;100.00
71145;BME280;58812;47.698;17.726;2022-09-16T05:28:18;99616.62;;;15.03;100.00
71145;BME280;58812;47.698;17.726;2022-09-16T05:30:43;99615.25;;;14.92;100.00
71145;BME280;58812;47.698;17.726;2022-09-16T05:33:09;99627.34;;;14.96;100.00
71145;BME280;58812;47.698;17.726;2022-09-16T05:35:34;99615.91;;;15.15;100.00
71145;BME280;58812;47.698;17.726;2022-09-16T05:37:59;99622.34;;;15.36;100.00
71145;BME280;58812;47.698;17.726;2022-09-16T05:40:25;99616.84;;;15.65;100.00
71145;BME280;58812;47.698;17.726;2022-09-16T05:42:51;99618.09;;;15.69;98.13
71145;BME280;58812;47.698;17.726;2022-09-16T05:45:17;99619.81;;;15.77;96.36
71145;BME280;58812;47.698;17.726;2022-09-16T05:47:47;99612.69;;;15.69;95.32
71145;BME280;58812;47.698;17.726;2022-09-16T05:50:12;99611.97;;;15.82;95.47
71145;BME280;58812;47.698;17.726;2022-09-16T05:52:37;99615.53;;;15.61;95.63
71145;BME280;58812;47.698;17.726;2022-09-16T05:55:03;99625.28;;;15.41;96.38
71145;BME280;58812;47.698;17.726;2022-09-16T05:57:28;99615.22;;;15.28;96.60
71145;BME280;58812;47.698;17.726;2022-09-16T05:59:54;99609.63;;;15.08;97.94
71145;BME280;58812;47.698;17.726;2022-09-16T06:02:19;99607.78;;;15.30;97.41
71145;BME280;58812;47.698;17.726;2022-09-16T06:04:45;99616.69;;;15.52;96.91
71145;BME280;58812;47.698;17.726;2022-09-16T06:07:11;99617.59;;;16.15;93.64
71145;BME280;58812;47.698;17.726;2022-09-16T06:09:37;99624.81;;;16.43;92.39
71145;BME280;58812;47.698;17.726;2022-09-16T06:12:03;99618.34;;;16.78;90.78
71145;BME280;58812;47.698;17.726;2022-09-16T06:14:28;99615.72;;;16.98;86.31
71145;BME280;58812;47.698;17.726;2022-09-16T06:16:54;99612.44;;;16.62;88.62
71145;BME280;58812;47.698;17.726;2022-09-16T06:19:20;99611.09;;;16.38;90.24
71145;BME280;58812;47.698;17.726;2022-09-16T06:21:45;99608.81;;;16.07;90.22
71145;BME280;58812;47.698;17.726;2022-09-16T06:24:12;99618.69;;;15.93;92.46
71145;BME280;58812;47.698;17.726;2022-09-16T06:26:40;99626.66;;;16.01;92.37
71145;BME280;58812;47.698;17.726;2022-09-16T06:29:06;99618.84;;;15.85;90.58
71145;BME280;58812;47.698;17.726;2022-09-16T06:31:33;99620.34;;;15.94;91.77
71145;BME280;58812;47.698;17.726;2022-09-16T06:33:59;99617.03;;;15.92;92.43
71145;BME280;58812;47.698;17.726;2022-09-16T06:36:28;99618.09;;;15.97;91.95
71145;BME280;58812;47.698;17.726;2022-09-16T06:38:53;99622.44;;;15.92;91.70
71145;BME280;58812;47.698;17.726;2022-09-16T06:41:20;99627.72;;;15.79;91.22
71145;BME280;58812;47.698;17.726;2022-09-16T06:43:47;99623.38;;;15.78;91.66
71145;BME280;58812;47.698;17.726;2022-09-16T06:46:15;99622.13;;;16.08;93.53
71145;BME280;58812;47.698;17.726;2022-09-16T06:48:50;99618.59;;;16.08;91.79
71145;BME280;58812;47.698;17.726;2022-09-16T06:51:22;99622.13;;;16.08;92.07
71145;BME280;58812;47.698;17.726;2022-09-16T06:53:48;99615.44;;;16.04;89.81
71145;BME280;58812;47.698;17.726;2022-09-16T06:56:17;99620.22;;;16.02;88.57
71145;BME280;58812;47.698;17.726;2022-09-16T06:58:45;99623.97;;;16.01;89.81
71145;BME280;58812;47.698;17.726;2022-09-16T07:01:19;99631.81;;;15.96;88.77
71145;BME280;58812;47.698;17.726;2022-09-16T07:03:47;99627.13;;;16.11;87.74
71145;BME280;58812;47.698;17.726;2022-09-16T07:06:14;99637.28;;;16.44;86.91
71145;BME280;58812;47.698;17.726;2022-09-16T07:08:40;99633.44;;;17.21;82.64
71145;BME280;58812;47.698;17.726;2022-09-16T07:13:33;99625.56;;;17.59;78.46
71145;BME280;58812;47.698;17.726;2022-09-16T07:16:00;99620.56;;;17.29;79.95
71145;BME280;58812;47.698;17.726;2022-09-16T07:18:27;99631.75;;;17.13;78.69
71145;BME280;58812;47.698;17.726;2022-09-16T07:20:52;99628.69;;;17.43;80.07
71145;BME280;58812;47.698;17.726;2022-09-16T07:23:18;99633.91;;;17.38;79.73
71145;BME280;58812;47.698;17.726;2022-09-16T07:25:44;99643.03;;;17.36;79.57
71145;BME280;58812;47.698;17.726;2022-09-16T07:28:09;99633.06;;;17.44;79.06
71145;BME280;58812;47.698;17.726;2022-09-16T07:30:34;99632.03;;;17.58;77.65
71145;BME280;58812;47.698;17.726;2022-09-16T07:33:00;99628.28;;;17.59;75.10
71145;BME280;58812;47.698;17.726;2022-09-16T07:35:25;99631.00;;;17.66;74.23
71145;BME280;58812;47.698;17.726;2022-09-16T07:37:51;99631.81;;;17.66;76.27
71145;BME280;58812;47.698;17.726;2022-09-16T07:40:16;99625.56;;;17.66;74.82
71145;BME280;58812;47.698;17.726;2022-09-16T07:42:42;99631.41;;;17.69;73.38
71145;BME280;58812;47.698;17.726;2022-09-16T07:45:08;99635.16;;;17.68;74.78
71145;BME280;58812;47.698;17.726;2022-09-16T07:47:34;99636.44;;;17.72;nan
71145;BME280;58812;47.698;17.726;2022-09-16T07:49:59;99644.34;;;17.67;74.45
71145;BME280;58812;47.698;17.726;2022-09-16T07:52:25;99641.84;;;17.72;74.03
71145;BME280;58812;47.698;17.726;2022-09-16T07:54:56;99638.50;;;17.90;73.77
71145;BME280;58812;47.698;17.726;2022-09-16T07:57:22;99643.53;;;17.86;72.02
71145;BME280;58812;47.698;17.726;2022-09-16T07:59:48;99637.88;;;18.08;72.26
71145;BME280;58812;47.698;17.726;2022-09-16T08:02:14;99631.41;;;17.62;69.17
71145;BME280;58812;47.698;17.726;2022-09-16T08:04:39;99628.75;;;17.76;72.05
71145;BME280;58812;47.698;17.726;2022-09-16T08:07:05;99640.59;;;17.81;74.01
71145;BME280;58812;47.698;17.726;2022-09-16T08:09:31;99637.22;;;17.59;70.06
71145;BME280;58812;47.698;17.726;2022-09-16T08:11:58;99635.13;;;17.55;70.07
71145;BME280;58812;47.698;17.726;2022-09-16T08:14:23;99652.69;;;17.79;70.94
71145;BME280;58812;47.698;17.726;2022-09-16T08:16:49;99651.00;;;17.78;70.27
71145;BME280;58812;47.698;17.726;2022-09-16T08:19:17;99656.66;;;17.76;71.06
71145;BME280;58812;47.698;17.726;2022-09-16T08:21:44;99662.84;;;17.57;69.87
71145;BME280;58812;47.698;17.726;2022-09-16T08:24:10;99670.59;;;17.86;70.68
71145;BME280;58812;47.698;17.726;2022-09-16T08:26:36;99669.75;;;18.06;70.60
71145;BME280;58812;47.698;17.726;2022-09-16T08:29:02;99675.38;;;18.11;70.01
71145;BME280;58812;47.698;17.726;2022-09-16T08:31:27;99672.25;;;18.14;69.39
71145;BME280;58812;47.698;17.726;2022-09-16T08:33:53;99676.19;;;18.18;71.34
71145;BME280;58812;47.698;17.726;2022-09-16T08:36:20;99688.09;;;17.77;68.46
71145;BME280;58812;47.698;17.726;2022-09-16T08:38:47;99672.47;;;18.12;70.35
71145;BME280;58812;47.698;17.726;2022-09-16T08:41:35;99676.44;;;18.10;70.99
71145;BME280;58812;47.698;17.726;2022-09-16T08:47:31;99677.91;;;17.79;67.76
71145;BME280;58812;47.698;17.726;2022-09-16T08:50:00;99672.06;;;17.82;68.08
71145;BME280;58812;47.698;17.726;2022-09-16T08:52:29;99676.44;;;18.10;69.05
71145;BME280;58812;47.698;17.726;2022-09-16T08:55:27;99667.88;;;18.13;68.33
71145;BME280;58812;47.698;17.726;2022-09-16T08:58:06;99667.66;;;18.21;69.15
71145;BME280;58812;47.698;17.726;2022-09-16T09:00:36;99676.44;;;17.97;68.87
71145;BME280;58812;47.698;17.726;2022-09-16T09:05:50;99670.59;;;18.00;67.82
71145;BME280;58812;47.698;17.726;2022-09-16T09:16:11;99669.62;;;18.72;67.49
71145;BME280;58812;47.698;17.726;2022-09-16T09:19:30;99665.84;;;18.86;62.80
71145;BME280;58812;47.698;17.726;2022-09-16T09:30:27;99664.94;;;19.76;62.53
71145;BME280;58812;47.698;17.726;2022-09-16T09:36:21;99650.84;;;19.54;58.14
71145;BME280;58812;47.698;17.726;2022-09-16T09:41:35;99651.28;;;19.82;57.82
71145;BME280;58812;47.698;17.726;2022-09-16T09:46:57;99652.56;;;20.05;55.57
71145;BME280;58812;47.698;17.726;2022-09-16T09:49:32;99655.03;;;20.68;54.95
71145;BME280;58812;47.698;17.726;2022-09-16T09:52:06;99645.91;;;21.11;53.77
71145;BME280;58812;47.698;17.726;2022-09-16T09:54:37;99646.06;;;21.46;51.66
71145;BME280;58812;47.698;17.726;2022-09-16T09:57:25;99636.97;;;21.52;51.84
71145;BME280;58812;47.698;17.726;2022-09-16T10:02:38;99634.19;;;23.33;47.15
71145;BME280;58812;47.698;17.726;2022-09-16T10:05:04;99635.75;;;23.29;46.67
71145;BME280;58812;47.698;17.726;2022-09-16T10:07:35;99628.44;;;22.89;45.96
71145;BME280;58812;47.698;17.726;2022-09-16T10:10:11;99622.88;;;23.58;43.25
71145;BME280;58812;47.698;17.726;2022-09-16T10:12:38;99622.69;;;23.31;45.88
71145;BME280;58812;47.698;17.726;2022-09-16T10:15:03;99627.06;;;23.32;46.50
71145;BME280;58812;47.698;17.726;2022-09-16T10:17:32;99631.78;;;23.19;46.64
71145;BME280;58812;47.698;17.726;2022-09-16T10:20:04;99637.06;;;23.26;44.73
71145;BME280;58812;47.698;17.726;2022-09-16T10:22:33;99620.34;;;23.85;43.23
71145;BME280;58812;47.698;17.726;2022-09-16T10:25:01;99618.63;;;23.62;45.57
71145;BME280;58812;47.698;17.726;2022-09-16T10:27:30;99606.91;;;24.00;43.18
71145;BME280;58812;47.698;17.726;2022-09-16T10:32:36;99600.22;;;24.30;43.11
71145;BME280;58812;47.698;17.726;2022-09-16T10:35:06;99610.28;;;23.57;41.78
71145;BME280;58812;47.698;17.726;2022-09-16T10:37:32;99615.72;;;23.23;43.38
71145;BME280;58812;47.698;17.726;2022-09-16T10:39:57;99611.72;;;23.14;43.91
71145;BME280;58812;47.698;17.726;2022-09-16T10:42:29;99618.13;;;22.91;44.10
71145;BME280;58812;47.698;17.726;2022-09-16T10:45:02;99613.44;;;23.03;45.58
71145;BME280;58812;47.698;17.726;2022-09-16T10:47:31;99618.59;;;22.88;45.38
71145;BME280;58812;47.698;17.726;2022-09-16T10:50:00;99616.06;;;21.99;46.24
71145;BME280;58812;47.698;17.726;2022-09-16T10:52:29;99614.56;;;22.27;45.78
71145;BME280;58812;47.698;17.726;2022-09-16T10:54:55;99617.16;;;22.22;47.08
71145;BME280;58812;47.698;17.726;2022-09-16T11:00:06;99614.53;;;21.80;46.98
71145;BME280;58812;47.698;17.726;2022-09-16T11:07:46;99614.16;;;22.35;46.22
71145;BME280;58812;47.698;17.726;2022-09-16T11:10:29;99619.97;;;22.50;43.08
71145;BME280;58812;47.698;17.726;2022-09-16T11:21:54;99623.03;;;22.65;41.65
71145;BME280;58812;47.698;17.726;2022-09-16T11:35:40;99601.59;;;22.34;44.49
71145;BME280;58812;47.698;17.726;2022-09-16T11:38:33;99592.81;;;22.44;44.50
71145;BME280;58812;47.698;17.726;2022-09-16T11:41:21;99594.41;;;22.16;45.39
71145;BME280;58812;47.698;17.726;2022-09-16T11:47:32;99596.78;;;22.64;46.05
71145;BME280;58812;47.698;17.726;2022-09-16T11:50:16;99599.72;;;21.99;43.65
71145;BME280;58812;47.698;17.726;2022-09-16T11:55:57;99588.47;;;21.84;44.27
71145;BME280;58812;47.698;17.726;2022-09-16T12:01:05;99589.72;;;21.46;44.56
71145;BME280;58812;47.698;17.726;2022-09-16T12:03:44;99593.81;;;20.95;47.15
71145;BME280;58812;47.698;17.726;2022-09-16T12:06:18;99577.84;;;20.99;46.60
71145;BME280;58812;47.698;17.726;2022-09-16T12:19:28;99580.13;;;20.53;48.25
71145;BME280;58812;47.698;17.726;2022-09-16T12:22:04;99577.09;;;20.92;48.65
71145;BME280;58812;47.698;17.726;2022-09-16T12:24:40;99575.81;;;20.94;48.36
71145;BME280;58812;47.698;17.726;2022-09-16T12:29:59;99572.03;;;20.65;47.39
71145;BME280;58812;47.698;17.726;2022-09-16T12:32:46;99576.41;;;20.66;48.95
71145;BME280;58812;47.698;17.726;2022-09-16T12:35:19;99569.25;;;20.35;47.28
71145;BME280;58812;47.698;17.726;2022-09-16T12:37:50;99574.31;;;20.50;48.65
71145;BME280;58812;47.698;17.726;2022-09-16T12:48:24;99560.78;;;20.62;47.46
71145;BME280;58812;47.698;17.726;2022-09-16T12:59:49;99553.38;;;20.50;49.71
71145;BME280;58812;47.698;17.726;2022-09-16T13:02:18;99550.72;;;20.25;49.54
71145;BME280;58812;47.698;17.726;2022-09-16T13:04:50;99546.44;;;20.18;49.36
71145;BME280;58812;47.698;17.726;2022-09-16T13:07:29;99546.44;;;20.18;50.22
71145;BME280;58812;47.698;17.726;2022-09-16T13:10:02;99551.13;;;20.29;51.58
71145;BME280;58812;47.698;17.726;2022-09-16T13:12:29;99538.50;;;20.35;51.76
71145;BME280;58812;47.698;17.726;2022-09-16T13:14:57;99533.59;;;20.25;51.18
71145;BME280;58812;47.698;17.726;2022-09-16T13:17:30;99536.63;;;20.17;50.49
71145;BME280;58812;47.698;17.726;2022-09-16T13:20:18;99522.72;;;20.25;50.05
71145;BME280;58812;47.698;17.726;2022-09-16T13:22:49;99525.28;;;20.38;48.36
71145;BME280;58812;47.698;17.726;2022-09-16T13:25:27;99521.63;;;20.44;49.86
71145;BME280;58812;47.698;17.726;2022-09-16T13:30:37;99512.66;;;20.62;49.67
71145;BME280;58812;47.698;17.726;2022-09-16T13:33:21;99506.16;;;20.45;49.28
71145;BME280;58812;47.698;17.726;2022-09-16T13:35:49;99500.94;;;20.43;50.92
71145;BME280;58812;47.698;17.726;2022-09-16T13:43:48;99497.03;;;20.58;49.97
71145;BME280;58812;47.698;17.726;2022-09-16T13:46:35;99491.72;;;19.96;49.77
71145;BME280;58812;47.698;17.726;2022-09-16T13:49:10;99493.44;;;19.90;50.63
71145;BME280;58812;47.698;17.726;2022-09-16T13:51:41;99479.09;;;19.65;49.33
71145;BME280;58812;47.698;17.726;2022-09-16T13:54:31;99476.06;;;19.73;50.32
71145;BME280;58812;47.698;17.726;2022-09-16T14:08:05;99483.31;;;20.16;51.32
71145;BME280;58812;47.698;17.726;2022-09-16T14:13:17;99484.59;;;20.13;52.90
71145;BME280;58812;47.698;17.726;2022-09-16T14:15:45;99482.72;;;19.95;54.08
71145;BME280;58812;47.698;17.726;2022-09-16T14:18:15;99478.62;;;19.86;52.42
71145;BME280;58812;47.698;17.726;2022-09-16T14:21:02;99477.72;;;19.74;53.57
71145;BME280;58812;47.698;17.726;2022-09-16T14:23:30;99474.25;;;19.67;53.29
71145;BME280;58812;47.698;17.726;2022-09-16T14:25:57;99471.19;;;19.63;54.72
71145;BME280;58812;47.698;17.726;2022-09-16T14:28:26;99477.06;;;19.60;54.67
71145;BME280;58812;47.698;17.726;2022-09-16T14:33:35;99472.25;;;19.56;55.92
71145;BME280;58812;47.698;17.726;2022-09-16T14:38:53;99476.03;;;19.55;56.29
71145;BME280;58812;47.698;17.726;2022-09-16T14:41:27;99478.88;;;19.41;55.11
71145;BME280;58812;47.698;17.726;2022-09-16T14:43:55;99490.84;;;19.09;54.78
71145;BME280;58812;47.698;17.726;2022-09-16T14:46:25;99489.06;;;18.96;56.30
71145;BME280;58812;47.698;17.726;2022-09-16T14:48:50;99487.56;;;19.00;56.28
71145;BME280;58812;47.698;17.726;2022-09-16T14:51:21;99492.59;;;18.97;56.39
71145;BME280;58812;47.698;17.726;2022-09-16T14:53:57;99493.94;;;18.87;58.76
71145;BME280;58812;47.698;17.726;2022-09-16T14:56:23;99489.75;;;18.91;58.39
71145;BME280;58812;47.698;17.726;2022-09-16T14:58:49;99478.41;;;18.70;57.47
71145;BME280;58812;47.698;17.726;2022-09-16T15:01:25;99480.06;;;18.64;58.88
71145;BME280;58812;47.698;17.726;2022-09-16T15:04:03;99480.31;;;18.56;59.55
71145;BME280;58812;47.698;17.726;2022-09-16T15:06:39;99479.34;;;18.50;58.77
71145;BME280;58812;47.698;17.726;2022-09-16T15:09:14;99468.63;;;18.62;58.82
71145;BME280;58812;47.698;17.726;2022-09-16T15:11:47;99464.91;;;18.50;57.98
71145;BME280;58812;47.698;17.726;2022-09-16T15:14:14;99469.19;;;18.39;59.42
71145;BME280;58812;47.698;17.726;2022-09-16T15:16:48;99473.81;;;18.25;59.56
71145;BME280;58812;47.698;17.726;2022-09-16T15:19:20;99473.81;;;18.25;59.36
71145;BME280;58812;47.698;17.726;2022-09-16T15:21:48;99474.41;;;17.82;66.31
71145;BME280;58812;47.698;17.726;2022-09-16T15:24:19;99476.06;;;17.70;70.22
71145;BME280;58812;47.698;17.726;2022-09-16T15:26:46;99480.69;;;17.50;72.58
71145;BME280;58812;47.698;17.726;2022-09-16T15:29:26;99471.91;;;17.81;72.63
71145;BME280;58812;47.698;17.726;2022-09-16T15:31:52;99475.25;;;17.70;72.65
71145;BME280;58812;47.698;17.726;2022-09-16T15:34:21;99475.50;;;17.42;74.85
71145;BME280;58812;47.698;17.726;2022-09-16T15:36:55;99473.22;;;17.39;75.64
71145;BME280;58812;47.698;17.726;2022-09-16T15:39:36;99462.84;;;17.16;76.92
71145;BME280;58812;47.698;17.726;2022-09-16T15:42:12;99459.06;;;17.23;76.41
71145;BME280;58812;47.698;17.726;2022-09-16T15:44:47;99447.22;;;17.04;77.80
71145;BME280;58812;47.698;17.726;2022-09-16T15:50:13;99452.84;;;17.09;78.25
71145;BME280;58812;47.698;17.726;2022-09-16T15:55:25;99438.28;;;16.91;79.39
71145;BME280;58812;47.698;17.726;2022-09-16T15:57:59;99429.56;;;17.02;79.19
71145;BME280;58812;47.698;17.726;2022-09-16T16:00:26;99422.28;;;17.09;79.93
71145;BME280;58812;47.698;17.726;2022-09-16T16:02:56;99440.34;;;16.89;79.54
71145;BME280;58812;47.698;17.726;2022-09-16T16:05:26;99442.84;;;16.83;79.77
71145;BME280;58812;47.698;17.726;2022-09-16T16:07:59;99440.78;;;16.72;80.37
71145;BME280;58812;47.698;17.726;2022-09-16T16:10:28;99428.66;;;16.55;80.50
71145;BME280;58812;47.698;17.726;2022-09-16T16:12:56;99434.03;;;16.42;80.98